createdAt,value
2024-02-14T00:01:35.123Z,1.50
2024-02-14T00:04:03.124Z,1.90
2024-02-14T00:06:30.748Z,1.55
2024-02-14T00:08:58.376Z,1.80
2024-02-14T00:11:25.933Z,2.38
2024-02-14T00:13:53.420Z,1.60
2024-02-14T00:16:20.927Z,1.38
2024-02-14T00:18:48.517Z,1.60
2024-02-14T00:21:16.143Z,1.92
2024-02-14T00:23:43.678Z,2.10
2024-02-14T00:26:11.059Z,2.40
2024-02-14T00:28:38.809Z,1.70
2024-02-14T00:31:07.803Z,1.70
2024-02-14T00:33:35.503Z,2.13
2024-02-14T00:36:03.147Z,2.00
2024-02-14T00:38:31.022Z,1.83
2024-02-14T00:40:59.013Z,1.33
2024-02-14T00:43:26.300Z,1.75
2024-02-14T00:45:53.782Z,2.35
2024-02-14T00:48:21.686Z,1.77
2024-02-14T00:50:49.121Z,2.08
2024-02-14T00:53:16.603Z,1.90
2024-02-14T00:55:43.985Z,2.00
2024-02-14T00:58:11.544Z,2.10
2024-02-14T01:00:38.970Z,1.90
2024-02-14T01:03:09.376Z,1.77
2024-02-14T01:08:04.709Z,1.90
2024-02-14T01:10:32.022Z,2.00
2024-02-14T01:12:59.500Z,2.00
2024-02-14T01:15:26.912Z,1.52
2024-02-14T01:17:54.449Z,1.88
2024-02-14T01:20:22.033Z,1.90
2024-02-14T01:22:49.577Z,1.92
2024-02-14T01:25:17.191Z,1.90
2024-02-14T01:27:44.536Z,2.30
2024-02-14T01:30:13.576Z,2.50
2024-02-14T01:32:41.090Z,2.00
2024-02-14T01:35:09.309Z,1.98
2024-02-14T01:37:36.998Z,1.55
2024-02-14T01:40:04.892Z,2.22
2024-02-14T01:42:32.300Z,2.00
2024-02-14T01:44:59.950Z,2.20
2024-02-14T01:47:27.497Z,1.90
2024-02-14T01:49:54.962Z,2.08
2024-02-14T01:52:23.653Z,2.40
2024-02-14T01:54:51.164Z,2.10
2024-02-14T01:57:19.369Z,2.00
2024-02-14T01:59:47.049Z,2.20
2024-02-14T02:02:14.762Z,1.95
2024-02-14T02:04:42.271Z,2.10
2024-02-14T02:07:09.807Z,2.40
2024-02-14T02:09:37.219Z,1.98
2024-02-14T02:12:09.401Z,2.13
2024-02-14T02:14:37.254Z,2.25
2024-02-14T02:17:09.310Z,2.35
2024-02-14T02:19:37.714Z,2.03
2024-02-14T02:22:06.282Z,2.22
2024-02-14T02:24:33.718Z,2.22
2024-02-14T02:27:01.494Z,2.40
2024-02-14T02:29:29.114Z,2.58
2024-02-14T02:31:56.703Z,2.50
2024-02-14T02:34:24.516Z,2.67
2024-02-14T02:36:52.480Z,2.00
2024-02-14T02:39:19.878Z,2.70
2024-02-14T02:41:49.112Z,2.63
2024-02-14T02:44:16.378Z,2.92
2024-02-14T02:46:47.374Z,2.90
2024-02-14T02:49:15.740Z,2.58
2024-02-14T02:51:43.294Z,2.60
2024-02-14T02:54:12.702Z,2.50
2024-02-14T02:56:42.215Z,2.33
2024-02-14T02:59:09.705Z,2.13
2024-02-14T03:01:38.278Z,2.00
2024-02-14T03:04:06.140Z,2.20
2024-02-14T03:06:33.762Z,2.13
2024-02-14T03:09:01.458Z,2.03
2024-02-14T03:11:29.263Z,2.30
2024-02-14T03:13:56.738Z,2.05
2024-02-14T03:16:25.576Z,2.30
2024-02-14T03:18:55.325Z,2.40
2024-02-14T03:21:23.743Z,1.98
2024-02-14T03:23:51.194Z,2.72
2024-02-14T03:26:18.817Z,2.10
2024-02-14T03:28:46.432Z,2.10
2024-02-14T03:31:17.134Z,2.45
2024-02-14T03:33:46.558Z,2.63
2024-02-14T03:36:14.276Z,1.90
2024-02-14T03:38:42.881Z,2.83
2024-02-14T03:41:10.463Z,2.08
2024-02-14T03:43:37.872Z,2.20
2024-02-14T03:46:06.603Z,1.83
2024-02-14T03:48:34.351Z,2.20
2024-02-14T03:51:02.067Z,2.20
2024-02-14T03:53:29.508Z,2.58
2024-02-14T03:55:56.939Z,2.85
2024-02-14T03:58:25.263Z,2.60
2024-02-14T04:00:53.650Z,3.33
2024-02-14T04:03:21.308Z,2.55
2024-02-14T04:05:49.368Z,2.70
2024-02-14T04:08:17.063Z,2.38
2024-02-14T04:10:45.649Z,2.10
2024-02-14T04:13:13.212Z,1.92
2024-02-14T04:15:40.625Z,1.83
2024-02-14T04:18:08.389Z,2.20
2024-02-14T04:20:36.966Z,2.00
2024-02-14T04:23:07.451Z,2.10
2024-02-14T04:25:35.403Z,2.50
2024-02-14T04:28:05.010Z,2.10
2024-02-14T04:30:32.533Z,2.40
2024-02-14T04:33:00.182Z,2.92
2024-02-14T04:35:27.707Z,2.03
2024-02-14T04:37:55.283Z,1.90
2024-02-14T04:40:22.744Z,2.33
2024-02-14T04:42:50.261Z,1.90
2024-02-14T04:45:17.770Z,2.28
2024-02-14T04:47:46.076Z,2.42
2024-02-14T04:50:15.443Z,2.40
2024-02-14T04:52:42.884Z,2.28
2024-02-14T04:55:10.443Z,2.60
2024-02-14T04:57:38.546Z,2.10
2024-02-14T05:00:07.182Z,2.10
2024-02-14T05:02:34.659Z,2.17
2024-02-14T05:05:03.296Z,2.70
2024-02-14T05:07:30.844Z,1.95
2024-02-14T05:09:58.358Z,2.40
2024-02-14T05:12:25.724Z,2.20
2024-02-14T05:14:53.351Z,2.20
2024-02-14T05:17:20.915Z,2.10
2024-02-14T05:19:48.477Z,2.15
2024-02-14T05:22:16.089Z,2.30
2024-02-14T05:24:43.601Z,2.22
2024-02-14T05:27:11.087Z,2.33
2024-02-14T05:29:38.517Z,1.85
2024-02-14T05:32:06.623Z,1.98
2024-02-14T05:34:34.213Z,1.70
2024-02-14T05:37:01.583Z,2.05
2024-02-14T05:39:29.187Z,2.08
2024-02-14T05:41:56.822Z,1.70
2024-02-14T05:44:24.559Z,1.90
2024-02-14T05:46:51.950Z,1.90
2024-02-14T05:49:19.525Z,1.77
2024-02-14T05:51:46.985Z,1.77
2024-02-14T05:54:14.277Z,1.60
2024-02-14T05:56:41.861Z,1.33
2024-02-14T05:59:09.283Z,1.10
2024-02-14T06:01:37.011Z,0.90
2024-02-14T06:04:04.763Z,1.23
2024-02-14T06:06:32.359Z,1.00
2024-02-14T06:08:59.940Z,0.95
2024-02-14T06:11:27.624Z,0.75
2024-02-14T06:13:55.146Z,1.20
2024-02-14T06:16:22.649Z,1.60
2024-02-14T06:18:50.276Z,0.93
2024-02-14T06:21:17.830Z,1.23
2024-02-14T06:23:48.335Z,0.90
2024-02-14T06:26:15.899Z,1.00
2024-02-14T06:28:43.298Z,1.00
2024-02-14T06:31:11.107Z,0.70
2024-02-14T06:33:38.767Z,0.88
2024-02-14T06:36:06.641Z,0.98
2024-02-14T06:38:34.219Z,0.90
2024-02-14T06:41:02.318Z,1.15
2024-02-14T06:43:30.617Z,0.82
2024-02-14T06:45:58.512Z,0.90
2024-02-14T06:48:26.322Z,1.00
2024-02-14T06:50:53.929Z,1.08
2024-02-14T06:53:21.390Z,1.10
2024-02-14T06:55:48.830Z,1.58
2024-02-14T06:58:16.246Z,1.33
2024-02-14T07:00:43.824Z,1.35
2024-02-14T07:03:11.447Z,1.75
2024-02-14T07:05:39.112Z,1.73
2024-02-14T07:08:06.876Z,1.63
2024-02-14T07:10:34.647Z,1.85
2024-02-14T07:13:01.994Z,1.83
2024-02-14T07:15:30.246Z,1.60
2024-02-14T07:17:59.439Z,1.95
2024-02-14T07:20:30.093Z,1.77
2024-02-14T07:25:26.044Z,1.40
2024-02-14T07:27:53.697Z,1.15
2024-02-14T07:30:21.246Z,1.10
2024-02-14T07:32:48.959Z,1.40
2024-02-14T07:35:16.538Z,1.00
2024-02-14T07:37:44.731Z,1.50
2024-02-14T07:40:13.919Z,1.55
2024-02-14T07:42:42.656Z,1.25
2024-02-14T07:45:10.778Z,1.35
2024-02-14T07:47:41.605Z,1.50
2024-02-14T07:50:10.703Z,1.35
2024-02-14T07:52:38.211Z,1.50
2024-02-14T07:55:06.247Z,2.13
2024-02-14T07:57:33.735Z,2.25
2024-02-14T08:00:01.191Z,2.90
2024-02-14T08:02:29.045Z,2.40
2024-02-14T08:04:56.626Z,1.65
2024-02-14T08:07:24.103Z,1.30
2024-02-14T08:09:51.496Z,1.35
2024-02-14T08:12:18.877Z,1.40
2024-02-14T08:14:46.362Z,1.58
2024-02-14T08:17:13.900Z,1.35
2024-02-14T08:19:41.680Z,1.00
2024-02-14T08:22:09.427Z,1.73
2024-02-14T08:24:39.681Z,1.73
2024-02-14T08:27:08.227Z,1.50
2024-02-14T08:29:35.818Z,1.60
2024-02-14T08:32:04.615Z,1.35
2024-02-14T08:34:32.352Z,1.23
2024-02-14T08:36:59.828Z,1.33
2024-02-14T08:39:27.857Z,0.90
2024-02-14T08:41:55.449Z,1.70
2024-02-14T08:44:22.981Z,1.23
2024-02-14T08:46:50.720Z,1.05
2024-02-14T08:49:18.284Z,1.02
2024-02-14T08:51:47.567Z,1.80
2024-02-14T08:54:17.550Z,1.88
2024-02-14T08:56:45.208Z,1.38
2024-02-14T08:59:12.960Z,1.60
2024-02-14T09:01:40.427Z,1.70
2024-02-14T09:04:08.077Z,1.65
2024-02-14T09:06:35.754Z,2.00
2024-02-14T09:09:03.354Z,1.60
2024-02-14T09:11:30.850Z,1.67
2024-02-14T09:14:03.632Z,1.42
2024-02-14T09:16:31.081Z,1.15
2024-02-14T09:18:59.408Z,1.70
2024-02-14T09:21:26.861Z,1.63
2024-02-14T09:23:54.286Z,1.65
2024-02-14T09:26:21.937Z,1.98
2024-02-14T09:28:49.484Z,1.98
2024-02-14T09:31:21.190Z,1.73
2024-02-14T09:33:51.659Z,2.00
2024-02-14T09:38:48.732Z,1.65
2024-02-14T09:41:44.786Z,1.88
2024-02-14T09:44:12.421Z,1.98
2024-02-14T09:46:40.308Z,1.80
2024-02-14T09:49:08.497Z,2.55
2024-02-14T09:51:36.460Z,2.22
2024-02-14T09:54:05.235Z,2.20
2024-02-14T09:56:33.772Z,2.45
2024-02-14T09:59:04.281Z,1.77
2024-02-14T10:01:31.705Z,1.58
2024-02-14T10:03:59.377Z,1.70
2024-02-14T10:06:27.234Z,1.42
2024-02-14T10:09:03.086Z,1.52
2024-02-14T10:11:34.091Z,1.52
2024-02-14T10:14:05.927Z,1.77
2024-02-14T10:16:33.745Z,1.70
2024-02-14T10:19:02.235Z,1.98
2024-02-14T10:21:30.445Z,1.85
2024-02-14T10:24:01.998Z,1.75
2024-02-14T10:26:33.544Z,1.83
2024-02-14T10:29:01.255Z,1.83
2024-02-14T10:31:29.377Z,1.40
2024-02-14T10:34:00.590Z,1.60
2024-02-14T10:36:28.356Z,1.30
2024-02-14T10:38:56.949Z,1.38
2024-02-14T10:41:24.415Z,1.15
2024-02-14T10:43:51.930Z,1.35
2024-02-14T10:46:24.541Z,1.73
2024-02-14T10:49:00.309Z,1.38
2024-02-14T10:51:42.712Z,1.30
2024-02-14T10:54:13.586Z,1.23
2024-02-14T10:56:44.682Z,1.02
2024-02-14T10:59:16.858Z,1.38
2024-02-14T11:01:45.369Z,1.58
2024-02-14T11:04:13.729Z,1.40
2024-02-14T11:06:48.803Z,1.20
2024-02-14T11:09:17.248Z,1.45
2024-02-14T11:11:45.885Z,1.52
2024-02-14T11:14:17.484Z,1.42
2024-02-14T11:16:47.461Z,1.48
2024-02-14T11:19:18.153Z,1.48
2024-02-14T11:21:48.573Z,1.50
2024-02-14T11:24:17.490Z,1.60
2024-02-14T11:26:50.899Z,1.42
2024-02-14T11:29:22.236Z,1.30
2024-02-14T11:32:03.680Z,1.23
2024-02-14T11:34:38.069Z,1.40
2024-02-14T11:37:09.186Z,1.45
2024-02-14T11:39:36.714Z,1.73
2024-02-14T11:42:04.309Z,1.25
2024-02-14T11:44:31.822Z,1.17
2024-02-14T11:46:59.568Z,1.13
2024-02-14T11:49:27.448Z,1.17
2024-02-14T11:51:55.144Z,1.30
2024-02-14T11:54:22.791Z,1.38
2024-02-14T11:56:50.895Z,1.40
2024-02-14T11:59:21.402Z,1.17
2024-02-14T12:04:18.966Z,1.60
2024-02-14T12:06:46.604Z,1.70
2024-02-14T12:09:15.192Z,1.50
2024-02-14T12:11:47.659Z,1.23
2024-02-14T12:14:16.082Z,1.15
2024-02-14T12:16:43.659Z,1.15
2024-02-14T12:19:17.803Z,1.35
2024-02-14T12:21:46.201Z,1.38
2024-02-14T12:24:16.513Z,1.40
2024-02-14T12:26:44.891Z,1.45
2024-02-14T12:29:15.350Z,1.00
2024-02-14T12:31:45.232Z,1.27
2024-02-14T12:34:13.836Z,1.15
2024-02-14T12:36:41.989Z,1.13
2024-02-14T12:39:11.123Z,1.02
2024-02-14T12:41:41.712Z,1.63
2024-02-14T12:44:09.982Z,1.30
2024-02-14T12:46:39.973Z,1.20
2024-02-14T12:49:08.097Z,1.50
2024-02-14T12:51:37.721Z,1.45
2024-02-14T12:54:05.712Z,0.95
2024-02-14T12:56:33.317Z,0.90
2024-02-14T12:59:03.610Z,1.13
2024-02-14T13:01:31.356Z,1.33
2024-02-14T13:03:59.061Z,1.27
2024-02-14T13:06:27.895Z,0.90
2024-02-14T13:08:57.128Z,1.10
2024-02-14T13:11:24.747Z,1.15
2024-02-14T13:13:52.091Z,1.30
2024-02-14T13:16:19.949Z,1.15
2024-02-14T13:18:47.669Z,1.17
2024-02-14T13:21:15.337Z,0.90
2024-02-14T13:23:42.849Z,1.20
2024-02-14T13:26:10.600Z,1.05
2024-02-14T13:28:37.990Z,1.10
2024-02-14T13:31:05.506Z,1.08
2024-02-14T13:33:33.153Z,0.90
2024-02-14T13:36:00.799Z,0.85
2024-02-14T13:38:28.278Z,1.23
2024-02-14T13:40:55.915Z,0.82
2024-02-14T13:43:23.447Z,1.30
2024-02-14T13:45:51.750Z,0.85
2024-02-14T13:48:19.470Z,1.30
2024-02-14T13:50:47.174Z,0.95
2024-02-14T13:53:14.716Z,1.17
2024-02-14T13:55:42.099Z,1.48
2024-02-14T13:58:15.913Z,1.65
2024-02-14T14:00:44.310Z,1.42
2024-02-14T14:03:12.071Z,1.38
2024-02-14T14:05:39.682Z,1.15
2024-02-14T14:08:07.309Z,1.83
2024-02-14T14:10:35.138Z,2.85
2024-02-14T14:13:02.545Z,1.90
2024-02-14T14:15:30.698Z,1.85
2024-02-14T14:17:59.113Z,1.38
2024-02-14T14:20:26.769Z,1.40
2024-02-14T14:22:54.297Z,1.67
2024-02-14T14:25:21.736Z,1.38
2024-02-14T14:27:49.314Z,1.80
2024-02-14T14:30:16.941Z,1.80
2024-02-14T14:32:44.457Z,1.73
2024-02-14T14:35:12.648Z,1.80
2024-02-14T14:37:40.529Z,1.38
2024-02-14T14:40:10.173Z,1.40
2024-02-14T14:42:39.681Z,1.37
2024-02-14T14:45:08.666Z,1.65
2024-02-14T14:47:37.275Z,1.58
2024-02-14T14:50:05.608Z,1.60
2024-02-14T14:52:33.205Z,1.58
2024-02-14T14:55:01.219Z,1.50
2024-02-14T14:57:28.863Z,1.90
2024-02-14T14:59:56.486Z,1.70
2024-02-14T15:02:24.215Z,1.88
2024-02-14T15:04:52.361Z,1.45
2024-02-14T15:07:22.774Z,1.80
2024-02-14T15:09:50.202Z,1.83
2024-02-14T15:12:17.769Z,1.60
2024-02-14T15:14:45.362Z,1.60
2024-02-14T15:17:12.970Z,1.45
2024-02-14T15:19:40.544Z,1.55
2024-02-14T15:22:08.030Z,1.40
2024-02-14T15:24:38.419Z,1.60
2024-02-14T15:27:07.290Z,1.80
2024-02-14T15:29:53.342Z,1.58
2024-02-14T15:32:39.248Z,1.48
2024-02-14T15:35:07.842Z,1.40
2024-02-14T15:37:36.093Z,1.70
2024-02-14T15:40:03.874Z,1.50
2024-02-14T15:42:31.266Z,1.27
2024-02-14T15:44:58.818Z,1.30
2024-02-14T15:47:26.513Z,1.90
2024-02-14T15:49:53.953Z,1.45
2024-02-14T15:52:21.932Z,2.00
2024-02-14T15:54:49.561Z,2.00
2024-02-14T15:57:17.185Z,1.70
2024-02-14T15:59:44.827Z,1.17
2024-02-14T16:02:12.251Z,1.75
2024-02-14T16:04:40.119Z,1.50
2024-02-14T16:07:07.995Z,1.60
2024-02-14T16:09:35.424Z,1.83
2024-02-14T16:12:02.884Z,1.73
2024-02-14T16:14:31.057Z,1.30
2024-02-14T16:16:58.923Z,1.95
2024-02-14T16:19:26.570Z,2.13
2024-02-14T16:22:02.143Z,1.25
2024-02-14T16:24:39.461Z,1.33
2024-02-14T16:27:07.567Z,1.48
2024-02-14T16:29:39.468Z,1.80
2024-02-14T16:32:08.403Z,1.50
2024-02-14T16:34:36.217Z,1.40
2024-02-14T16:37:04.570Z,1.85
2024-02-14T16:39:41.597Z,1.60
2024-02-14T16:42:12.268Z,1.70
2024-02-14T16:44:40.242Z,1.48
2024-02-14T16:47:08.341Z,1.40
2024-02-14T16:49:36.613Z,1.58
2024-02-14T16:52:05.199Z,1.38
2024-02-14T16:54:33.042Z,1.63
2024-02-14T16:57:07.017Z,1.77
2024-02-14T16:59:34.812Z,1.80
2024-02-14T17:02:02.462Z,1.85
2024-02-14T17:04:30.073Z,1.60
2024-02-14T17:06:57.895Z,1.80
2024-02-14T17:09:25.804Z,1.65
2024-02-14T17:11:53.315Z,1.77
2024-02-14T17:14:21.667Z,1.52
2024-02-14T17:16:50.074Z,1.70
2024-02-14T17:19:21.165Z,1.55
2024-02-14T17:21:49.263Z,1.40
2024-02-14T17:24:16.756Z,1.70
2024-02-14T17:26:44.200Z,1.80
2024-02-14T17:29:12.040Z,1.80
2024-02-14T17:31:40.201Z,1.33
2024-02-14T17:34:08.151Z,1.75
2024-02-14T17:36:36.346Z,1.38
2024-02-14T17:39:06.897Z,1.67
2024-02-14T17:44:07.448Z,1.48
2024-02-14T17:46:35.604Z,1.42
2024-02-14T17:49:04.389Z,1.50
2024-02-14T17:51:32.853Z,1.48
2024-02-14T17:54:00.877Z,1.40
2024-02-14T17:56:28.480Z,1.30
2024-02-14T17:58:56.162Z,1.65
2024-02-14T18:01:24.620Z,1.30
2024-02-14T18:03:52.126Z,1.35
2024-02-14T18:06:19.744Z,1.33
2024-02-14T18:08:47.405Z,1.27
2024-02-14T18:11:15.367Z,1.10
2024-02-14T18:13:42.776Z,1.45
2024-02-14T18:16:10.588Z,1.70
2024-02-14T18:18:38.431Z,1.88
2024-02-14T18:21:06.308Z,1.90
2024-02-14T18:23:33.884Z,1.80
2024-02-14T18:26:01.431Z,1.92
2024-02-14T18:28:28.931Z,2.45
2024-02-14T18:30:56.998Z,2.03
2024-02-14T18:33:24.734Z,1.83
2024-02-14T18:35:52.420Z,1.75
2024-02-14T18:38:22.631Z,2.28
2024-02-14T18:40:50.506Z,1.98
2024-02-14T18:43:18.059Z,2.20
2024-02-14T18:45:45.664Z,2.10
2024-02-14T18:48:14.042Z,2.20
2024-02-14T18:50:42.894Z,2.30
2024-02-14T18:53:10.493Z,2.03
2024-02-14T18:55:37.939Z,2.30
2024-02-14T18:58:05.501Z,1.85
2024-02-14T19:00:33.644Z,1.92
2024-02-14T19:03:02.251Z,2.28
2024-02-14T19:05:30.106Z,1.83
2024-02-14T19:07:57.739Z,2.10
2024-02-14T19:10:25.132Z,1.90
2024-02-14T19:12:52.584Z,1.40
2024-02-14T19:15:21.946Z,1.50
2024-02-14T19:17:50.107Z,1.67
2024-02-14T19:20:17.768Z,1.30
2024-02-14T19:22:46.464Z,1.58
2024-02-14T19:25:14.079Z,1.25
2024-02-14T19:27:41.601Z,1.20
2024-02-14T19:30:09.371Z,1.10
2024-02-14T19:32:39.574Z,1.23
2024-02-14T19:35:07.684Z,1.38
2024-02-14T19:37:35.227Z,1.25
2024-02-14T19:40:02.915Z,1.25
2024-02-14T19:42:30.457Z,1.10
2024-02-14T19:44:58.329Z,1.13
2024-02-14T19:47:28.086Z,1.42
2024-02-14T19:49:55.594Z,0.93
2024-02-14T19:52:23.900Z,1.23
2024-02-14T19:54:51.357Z,1.05
2024-02-14T19:57:21.340Z,1.05
2024-02-14T19:59:48.927Z,1.23
2024-02-14T20:02:17.096Z,1.30
2024-02-14T20:04:45.772Z,1.33
2024-02-14T20:07:13.231Z,1.00
2024-02-14T20:09:41.496Z,0.98
2024-02-14T20:12:11.384Z,1.00
2024-02-14T20:14:40.306Z,1.20
2024-02-14T20:17:08.126Z,1.20
2024-02-14T20:19:36.576Z,1.20
2024-02-14T20:22:04.562Z,1.23
2024-02-14T20:24:34.750Z,1.70
2024-02-14T20:27:02.132Z,1.40
2024-02-14T20:29:29.652Z,1.35
2024-02-14T20:31:57.107Z,1.15
2024-02-14T20:34:25.101Z,1.60
2024-02-14T20:36:53.239Z,2.00
2024-02-14T20:39:20.692Z,1.55
2024-02-14T20:41:48.231Z,1.92
2024-02-14T20:44:15.597Z,1.67
2024-02-14T20:46:49.815Z,1.65
2024-02-14T20:49:17.431Z,1.90
2024-02-14T20:51:44.834Z,1.65
2024-02-14T20:54:12.734Z,1.88
2024-02-14T20:56:40.302Z,1.60
2024-02-14T20:59:15.736Z,1.23
2024-02-14T21:01:44.583Z,1.52
2024-02-14T21:04:12.090Z,1.83
2024-02-14T21:06:39.895Z,1.23
2024-02-14T21:09:07.539Z,1.70
2024-02-14T21:11:35.142Z,1.55
2024-02-14T21:14:03.302Z,1.90
2024-02-14T21:16:31.633Z,1.52
2024-02-14T21:18:59.204Z,1.73
2024-02-14T21:21:26.951Z,1.75
2024-02-14T21:23:54.480Z,1.60
2024-02-14T21:26:21.943Z,1.80
2024-02-14T21:28:49.579Z,2.10
2024-02-14T21:31:17.165Z,1.65
2024-02-14T21:33:45.518Z,1.73
2024-02-14T21:36:13.128Z,1.90
2024-02-14T21:38:40.679Z,1.73
2024-02-14T21:41:08.241Z,1.88
2024-02-14T21:43:35.893Z,2.10
2024-02-14T21:46:04.714Z,1.77
2024-02-14T21:48:32.637Z,2.05
2024-02-14T21:51:05.426Z,1.70
2024-02-14T21:53:32.948Z,1.65
2024-02-14T21:56:00.376Z,1.40
2024-02-14T21:58:27.717Z,2.10
2024-02-14T22:00:55.251Z,1.67
2024-02-14T22:03:23.235Z,1.67
2024-02-14T22:05:51.042Z,1.88
2024-02-14T22:08:18.663Z,1.70
2024-02-14T22:10:46.320Z,1.38
2024-02-14T22:13:13.894Z,1.70
2024-02-14T22:15:42.202Z,1.70
2024-02-14T22:18:09.612Z,1.88
2024-02-14T22:20:37.119Z,1.20
2024-02-14T22:23:07.590Z,1.58
2024-02-14T22:25:35.068Z,1.80
2024-02-14T22:28:05.183Z,1.63
2024-02-14T22:30:32.669Z,1.88
2024-02-14T22:33:00.351Z,1.70
2024-02-14T22:35:27.806Z,1.65
2024-02-14T22:37:55.417Z,1.40
2024-02-14T22:40:22.950Z,1.30
2024-02-14T22:42:50.611Z,1.33
2024-02-14T22:45:18.637Z,1.55
2024-02-14T22:47:46.240Z,1.73
2024-02-14T22:50:14.520Z,1.70
2024-02-14T22:52:42.349Z,1.35
2024-02-14T22:55:11.298Z,1.48
2024-02-14T22:57:38.928Z,1.50
2024-02-14T23:00:07.465Z,1.33
2024-02-14T23:02:34.903Z,1.88
2024-02-14T23:05:02.620Z,1.45
2024-02-14T23:07:30.127Z,1.50
2024-02-14T23:09:57.887Z,1.33
2024-02-14T23:12:25.245Z,1.38
2024-02-14T23:14:52.584Z,1.58
2024-02-14T23:17:19.903Z,1.33
2024-02-14T23:19:47.411Z,0.90
2024-02-14T23:22:15.542Z,1.52
2024-02-14T23:24:43.041Z,1.20
2024-02-14T23:27:10.529Z,1.08
2024-02-14T23:29:37.858Z,1.23
2024-02-14T23:32:06.109Z,1.38
2024-02-14T23:34:34.339Z,0.95
2024-02-14T23:37:02.704Z,1.40
2024-02-14T23:39:30.629Z,1.77
2024-02-14T23:41:58.050Z,1.90
2024-02-14T23:44:26.853Z,1.40
2024-02-14T23:46:55.392Z,1.60
2024-02-14T23:49:22.974Z,1.77
2024-02-14T23:51:50.567Z,1.90
2024-02-14T23:54:18.444Z,1.30
2024-02-14T23:56:48.931Z,1.30
2024-02-14T23:59:17.217Z,1.17
